Allyn, Washington
Current Conditions -  °F | °C
As of 2:15 PM on Saturday 20 Dec 2014 (Local Time) from KPWT Reporting Station
Overcast Overcast  
Wind Chill: 44°   Ceiling: 500
Heat Index: 46°   Visibility: 5mi
Dew Point: 46°   Wind: 6mph
Humidity: 100%   Direction: 180°S
Pressure: 29.51"   Gusts: NA
Location:  47.39°N, 122.83°W
Report Text: KPWT 202215Z AUTO 18005KT 5SM OVC005 08/08 A2951 RMK AO1 P0003
Loading
Personal Weather Stations






























Interactive Weather Map New forecast layout! Learn more

10-Day Weather Forecast

Advertisements
Track Severe Weather on mobile